Time;durP1;ratioP1;P1;durP2;ratioP2;P2;SDS_P1;SDS_P2;PMS_P1;PMS_P2;Temp;Humidity;BMP_temperature;BMP_pressure;BME280_temperature;BME280_humidity;BME280_pressure;Samples;Min_cycle;Max_cycle;Signal;HPM_P1;HPM_P2
2021/09/23 00:01:01;;;;;;;11.87;7.43;;;;;;;;;;5076002;28;20223;-77
2021/09/23 00:07:22;;;;;;;12.93;7.60;;;;;;;;;;5076983;28;20203;-77
2021/09/23 00:10:29;;;;;;;12.13;6.60;;;;;;;;;;5075281;28;20183;-77
2021/09/23 00:13:32;;;;;;;9.60;6.97;;;;;;;;;;5076221;28;20179;-77
2021/09/23 00:16:37;;;;;;;9.87;6.50;;;;;;;;;;5075258;28;20183;-77
2021/09/23 00:19:41;;;;;;;10.37;6.83;;;;;;;;;;5076780;28;20631;-77
2021/09/23 00:22:46;;;;;;;8.97;6.70;;;;;;;;;;5076252;28;20219;-77
2021/09/23 00:25:50;;;;;;;13.27;6.77;;;;;;;;;;5075903;28;20207;-77
2021/09/23 00:28:55;;;;;;;10.20;7.10;;;;;;;;;;5075594;28;20187;-77
2021/09/23 00:31:59;;;;;;;9.00;6.87;;;;;;;;;;5075468;28;20211;-77
2021/09/23 00:35:05;;;;;;;9.20;7.20;;;;;;;;;;5074810;28;20538;-77
2021/09/23 00:38:09;;;;;;;12.70;7.70;;;;;;;;;;5074574;28;20179;-77
2021/09/23 00:41:14;;;;;;;9.40;6.87;;;;;;;;;;5073996;28;20698;-77
2021/09/23 00:44:20;;;;;;;10.63;6.80;;;;;;;;;;5074390;28;20184;-78
2021/09/23 00:47:25;;;;;;;9.93;7.13;;;;;;;;;;5063341;28;20567;-78
2021/09/23 00:50:29;;;;;;;12.53;7.83;;;;;;;;;;5075363;28;20183;-77
2021/09/23 00:53:41;;;;;;;12.27;8.17;;;;;;;;;;5060701;23;20235;-72
2021/09/23 00:56:45;;;;;;;12.83;8.10;;;;;;;;;;4936623;29;20180;-72
2021/09/23 00:59:55;;;;;;;13.03;8.73;;;;;;;;;;4937604;29;20180;-72
2021/09/23 01:03:01;;;;;;;10.87;8.23;;;;;;;;;;4944747;29;20223;-72
2021/09/23 01:06:06;;;;;;;11.30;8.40;;;;;;;;;;4967009;28;20702;-72
2021/09/23 01:09:11;;;;;;;12.10;7.97;;;;;;;;;;4968682;28;20207;-72
2021/09/23 01:12:16;;;;;;;13.07;7.57;;;;;;;;;;4975459;28;20552;-72
2021/09/23 01:15:20;;;;;;;12.23;7.63;;;;;;;;;;4974841;28;20178;-72
2021/09/23 01:18:26;;;;;;;13.00;8.30;;;;;;;;;;4956081;28;20211;-72
2021/09/23 01:21:31;;;;;;;11.03;7.93;;;;;;;;;;4944068;29;20266;-72
2021/09/23 01:24:39;;;;;;;14.87;8.67;;;;;;;;;;4955418;29;20183;-72
2021/09/23 01:27:43;;;;;;;9.53;7.77;;;;;;;;;;4954958;29;20207;-72
2021/09/23 01:30:49;;;;;;;11.87;8.70;;;;;;;;;;4943913;29;20188;-72
2021/09/23 01:33:54;;;;;;;13.93;8.47;;;;;;;;;;4971958;28;20202;-72
2021/09/23 01:36:59;;;;;;;11.50;7.93;;;;;;;;;;4974050;28;20191;-72
2021/09/23 01:40:08;;;;;;;12.77;8.50;;;;;;;;;;4974272;28;20199;-72
2021/09/23 01:43:12;;;;;;;10.73;7.87;;;;;;;;;;4975076;28;20184;-72
2021/09/23 01:46:16;;;;;;;12.07;8.00;;;;;;;;;;4974444;28;20210;-72
2021/09/23 01:49:33;;;;;;;11.67;8.10;;;;;;;;;;4962636;28;20187;-72
2021/09/23 01:52:37;;;;;;;10.80;7.93;;;;;;;;;;4973822;28;20222;-72
2021/09/23 01:55:48;;;;;;;13.03;8.73;;;;;;;;;;4974866;28;20187;-72
2021/09/23 01:58:53;;;;;;;11.17;8.73;;;;;;;;;;4974137;28;20198;-72
2021/09/23 02:01:58;;;;;;;11.50;7.93;;;;;;;;;;4974062;28;20222;-72
2021/09/23 02:05:03;;;;;;;13.43;7.80;;;;;;;;;;4974256;28;20187;-72
2021/09/23 02:08:07;;;;;;;13.73;9.03;;;;;;;;;;4973607;28;20685;-72
2021/09/23 02:11:12;;;;;;;11.87;8.23;;;;;;;;;;4974123;28;20226;-72
2021/09/23 02:14:26;;;;;;;13.20;8.00;;;;;;;;;;4957963;28;20675;-72
2021/09/23 02:17:30;;;;;;;9.97;7.73;;;;;;;;;;4954888;29;20623;-72
2021/09/23 02:20:36;;;;;;;13.60;7.93;;;;;;;;;;4955526;29;20187;-72
2021/09/23 02:23:41;;;;;;;11.60;7.60;;;;;;;;;;4958428;23;20238;-87
2021/09/23 02:26:48;;;;;;;11.80;8.17;;;;;;;;;;4934919;29;20215;-86
2021/09/23 02:29:52;;;;;;;12.73;9.30;;;;;;;;;;4958316;28;20199;-86
2021/09/23 02:32:56;;;;;;;12.53;8.87;;;;;;;;;;4947800;28;20215;-86
2021/09/23 02:36:01;;;;;;;10.93;8.57;;;;;;;;;;4947758;29;20627;-86
2021/09/23 02:39:06;;;;;;;12.27;9.67;;;;;;;;;;4947579;29;20188;-86
2021/09/23 02:42:10;;;;;;;14.57;9.90;;;;;;;;;;4947484;29;20187;-86
2021/09/23 02:45:14;;;;;;;14.23;10.40;;;;;;;;;;4947303;29;20191;-86
2021/09/23 02:48:18;;;;;;;14.00;9.23;;;;;;;;;;4936196;29;20211;-86
2021/09/23 02:51:22;;;;;;;11.40;8.73;;;;;;;;;;4947536;29;20188;-86
2021/09/23 02:54:26;;;;;;;15.67;8.97;;;;;;;;;;4947262;29;20670;-87
2021/09/23 02:57:31;;;;;;;14.43;10.03;;;;;;;;;;4947162;29;20516;-86
2021/09/23 03:00:35;;;;;;;15.40;9.57;;;;;;;;;;4947191;29;20184;-86
2021/09/23 03:03:39;;;;;;;12.53;9.77;;;;;;;;;;4946615;29;20219;-86
2021/09/23 03:06:44;;;;;;;16.13;11.23;;;;;;;;;;4946502;29;20211;-86
2021/09/23 03:09:48;;;;;;;17.43;11.20;;;;;;;;;;4935700;29;20204;-86
2021/09/23 03:12:52;;;;;;;13.90;9.90;;;;;;;;;;4946788;28;20183;-87
2021/09/23 03:15:57;;;;;;;15.30;10.40;;;;;;;;;;4957869;29;20187;-86
2021/09/23 03:19:02;;;;;;;15.73;10.63;;;;;;;;;;4946710;29;20183;-87
2021/09/23 03:22:06;;;;;;;14.87;10.33;;;;;;;;;;4946628;29;20187;-86
2021/09/23 03:25:10;;;;;;;16.57;10.80;;;;;;;;;;4946892;29;20175;-86
2021/09/23 03:28:14;;;;;;;17.87;12.33;;;;;;;;;;4946673;29;20220;-85
2021/09/23 03:31:18;;;;;;;18.83;11.43;;;;;;;;;;4946666;29;20191;-84
2021/09/23 03:34:22;;;;;;;20.27;12.97;;;;;;;;;;4946284;29;20223;-85
2021/09/23 03:37:26;;;;;;;22.17;12.40;;;;;;;;;;4946322;29;20179;-85
2021/09/23 03:40:32;;;;;;;20.83;13.30;;;;;;;;;;4946755;29;20184;-85
2021/09/23 03:43:35;;;;;;;18.40;12.03;;;;;;;;;;4935687;28;20223;-85
2021/09/23 03:46:40;;;;;;;18.17;12.40;;;;;;;;;;4946570;29;20207;-85
2021/09/23 03:49:45;;;;;;;20.67;11.67;;;;;;;;;;4946591;29;20642;-85
2021/09/23 03:52:49;;;;;;;18.40;11.80;;;;;;;;;;4935002;28;20183;-85
2021/09/23 03:55:53;;;;;;;22.77;12.13;;;;;;;;;;4946504;29;20187;-85
2021/09/23 03:58:57;;;;;;;18.13;10.47;;;;;;;;;;4946111;29;20171;-85
2021/09/23 04:02:02;;;;;;;19.60;10.60;;;;;;;;;;4956898;29;20523;-85
2021/09/23 04:05:07;;;;;;;16.67;11.37;;;;;;;;;;4946142;29;20179;-85
2021/09/23 04:08:11;;;;;;;17.23;11.67;;;;;;;;;;4935216;29;20207;-85
2021/09/23 04:11:16;;;;;;;24.37;11.60;;;;;;;;;;4945968;29;20179;-85
2021/09/23 04:14:19;;;;;;;18.37;11.63;;;;;;;;;;4946515;29;20219;-85
2021/09/23 04:17:26;;;;;;;16.50;11.43;;;;;;;;;;4956570;28;20203;-85
2021/09/23 04:20:30;;;;;;;16.33;10.40;;;;;;;;;;4945738;29;20674;-85
2021/09/23 04:23:34;;;;;;;13.43;9.70;;;;;;;;;;4946074;28;20689;-85
2021/09/23 04:26:38;;;;;;;17.03;10.17;;;;;;;;;;4956725;29;20188;-85
2021/09/23 04:29:46;;;;;;;21.33;10.70;;;;;;;;;;4957071;29;20187;-85
2021/09/23 04:32:52;;;;;;;17.47;9.93;;;;;;;;;;4958980;28;20204;-85
2021/09/23 04:35:57;;;;;;;16.90;9.30;;;;;;;;;;4938775;29;20630;-86
2021/09/23 04:39:12;;;;;;;14.90;9.37;;;;;;;;;;4946933;29;20180;-85
2021/09/23 04:42:16;;;;;;;12.47;8.93;;;;;;;;;;4946054;29;20525;-85
2021/09/23 04:45:20;;;;;;;14.23;9.37;;;;;;;;;;4946580;29;20184;-85
2021/09/23 04:48:25;;;;;;;11.40;7.77;;;;;;;;;;4944549;28;20227;-85
2021/09/23 04:51:29;;;;;;;11.80;8.90;;;;;;;;;;4945463;29;20666;-85
2021/09/23 04:54:33;;;;;;;15.90;8.80;;;;;;;;;;4927009;29;20227;-85
2021/09/23 04:57:37;;;;;;;17.10;8.83;;;;;;;;;;4916369;29;20196;-85
2021/09/23 05:00:43;;;;;;;15.37;8.87;;;;;;;;;;4931134;29;20188;-85
2021/09/23 05:03:50;;;;;;;20.23;9.77;;;;;;;;;;4932400;29;20694;-85
2021/09/23 05:06:54;;;;;;;18.00;9.70;;;;;;;;;;4949319;29;20638;-85
2021/09/23 05:09:58;;;;;;;19.37;10.10;;;;;;;;;;4915905;29;20183;-85
2021/09/23 05:13:03;;;;;;;17.97;10.20;;;;;;;;;;4937412;29;20220;-85
2021/09/23 05:16:08;;;;;;;19.97;9.50;;;;;;;;;;4915679;29;20188;-86
2021/09/23 05:19:13;;;;;;;22.63;10.63;;;;;;;;;;4937649;29;20196;-85
2021/09/23 05:22:22;;;;;;;17.03;9.33;;;;;;;;;;4945891;29;20188;-85
2021/09/23 05:25:27;;;;;;;21.50;10.13;;;;;;;;;;4933876;29;20675;-86
2021/09/23 05:28:31;;;;;;;16.57;11.10;;;;;;;;;;4933724;29;20223;-86
2021/09/23 05:31:35;;;;;;;19.63;9.40;;;;;;;;;;4966183;28;20206;-85
2021/09/23 05:34:39;;;;;;;21.00;12.47;;;;;;;;;;4955447;29;20215;-86
2021/09/23 05:37:43;;;;;;;24.03;11.07;;;;;;;;;;4944364;29;20183;-85
2021/09/23 05:40:50;;;;;;;24.10;10.83;;;;;;;;;;4955928;29;20184;-85
2021/09/23 05:43:55;;;;;;;25.50;11.13;;;;;;;;;;4954987;28;20709;-85
2021/09/23 05:46:59;;;;;;;25.73;12.73;;;;;;;;;;4944027;29;20215;-85
2021/09/23 05:50:04;;;;;;;20.40;13.73;;;;;;;;;;4944406;29;20187;-85
2021/09/23 05:53:08;;;;;;;33.70;14.57;;;;;;;;;;4933118;29;20235;-85
2021/09/23 05:56:13;;;;;;;39.27;15.43;;;;;;;;;;4944286;29;20540;-85
2021/09/23 05:59:18;;;;;;;25.93;14.43;;;;;;;;;;4944046;28;20187;-85
2021/09/23 06:02:23;;;;;;;44.87;14.97;;;;;;;;;;4933369;29;20547;-85
2021/09/23 06:05:27;;;;;;;35.77;15.13;;;;;;;;;;4944197;29;20183;-85
2021/09/23 06:08:31;;;;;;;32.30;15.73;;;;;;;;;;4933380;29;20211;-86
2021/09/23 06:11:37;;;;;;;39.20;15.73;;;;;;;;;;4944767;29;20179;-85
2021/09/23 06:14:41;;;;;;;34.00;16.77;;;;;;;;;;4954967;28;20575;-85
2021/09/23 06:17:45;;;;;;;33.60;15.97;;;;;;;;;;4933038;29;20195;-85
2021/09/23 06:20:50;;;;;;;26.93;15.97;;;;;;;;;;4955046;29;20678;-85
2021/09/23 06:23:55;;;;;;;29.00;15.00;;;;;;;;;;4943854;29;20231;-85
2021/09/23 06:26:59;;;;;;;34.93;15.77;;;;;;;;;;4944500;29;20187;-85
2021/09/23 06:30:05;;;;;;;30.30;16.57;;;;;;;;;;4944248;29;20180;-86
2021/09/23 06:33:09;;;;;;;29.67;15.20;;;;;;;;;;4944043;28;20694;-86
2021/09/23 06:36:13;;;;;;;21.47;14.30;;;;;;;;;;4955362;29;20183;-86
2021/09/23 06:39:18;;;;;;;24.50;13.70;;;;;;;;;;4943890;29;20176;-86
2021/09/23 06:42:22;;;;;;;20.37;13.67;;;;;;;;;;4955059;29;20184;-86
2021/09/23 06:45:26;;;;;;;20.33;12.07;;;;;;;;;;4954763;29;20183;-86
2021/09/23 06:48:30;;;;;;;20.27;11.40;;;;;;;;;;4943852;29;20216;-86
2021/09/23 06:51:34;;;;;;;17.27;10.37;;;;;;;;;;4943605;29;20199;-86
2021/09/23 06:54:39;;;;;;;13.03;9.40;;;;;;;;;;4943612;29;20230;-86
2021/09/23 06:57:42;;;;;;;18.43;9.83;;;;;;;;;;4924412;29;20191;-86
2021/09/23 07:01:05;;;;;;;21.87;10.30;;;;;;;;;;4943958;29;20188;-86
2021/09/23 07:04:35;;;;;;;14.57;9.37;;;;;;;;;;4935260;29;20219;-86
2021/09/23 07:07:47;;;;;;;11.43;8.17;;;;;;;;;;4934760;29;20212;-86
2021/09/23 07:10:52;;;;;;;11.30;8.80;;;;;;;;;;4913788;29;20180;-86
2021/09/23 07:13:56;;;;;;;10.70;8.00;;;;;;;;;;4916773;29;20559;-86
2021/09/23 07:17:00;;;;;;;10.07;7.53;;;;;;;;;;4927961;29;20196;-86
2021/09/23 07:20:05;;;;;;;8.97;6.93;;;;;;;;;;4927795;29;20353;-86
2021/09/23 07:23:09;;;;;;;8.77;6.70;;;;;;;;;;4938137;29;20224;-86
2021/09/23 07:26:16;;;;;;;7.90;5.70;;;;;;;;;;4950129;29;20180;-86
2021/09/23 07:29:20;;;;;;;7.57;6.00;;;;;;;;;;4927410;29;20212;-86
2021/09/23 07:32:24;;;;;;;7.27;5.77;;;;;;;;;;4938577;29;20556;-86
2021/09/23 07:35:28;;;;;;;8.13;5.30;;;;;;;;;;4927469;29;20188;-86
2021/09/23 07:38:33;;;;;;;7.97;5.50;;;;;;;;;;4916601;29;20184;-86
2021/09/23 07:41:40;;;;;;;9.20;5.53;;;;;;;;;;4938322;29;20188;-86
2021/09/23 07:44:44;;;;;;;9.93;5.80;;;;;;;;;;4963335;23;20238;-73
2021/09/23 07:47:48;;;;;;;7.87;5.20;;;;;;;;;;4965257;28;20175;-74
2021/09/23 07:50:53;;;;;;;7.13;4.70;;;;;;;;;;4974976;28;20226;-75
2021/09/23 07:53:58;;;;;;;6.00;5.07;;;;;;;;;;4956924;29;20655;-75
2021/09/23 07:57:02;;;;;;;7.43;4.77;;;;;;;;;;4948190;29;20203;-75
2021/09/23 08:00:06;;;;;;;7.07;4.30;;;;;;;;;;4956764;29;20188;-74
2021/09/23 08:03:20;;;;;;;8.27;4.67;;;;;;;;;;4956848;29;20180;-74
2021/09/23 08:06:26;;;;;;;8.73;4.73;;;;;;;;;;4956448;29;20673;-75
2021/09/23 08:09:30;;;;;;;9.97;5.10;;;;;;;;;;4945883;29;20211;-74
2021/09/23 08:12:34;;;;;;;8.73;5.03;;;;;;;;;;4958929;28;20227;-74
2021/09/23 08:15:38;;;;;;;11.70;5.03;;;;;;;;;;4952446;28;20187;-74
2021/09/23 08:18:56;;;;;;;20.23;5.37;;;;;;;;;;4973699;28;20191;-75
2021/09/23 08:22:21;;;;;;;24.07;6.60;;;;;;;;;;4973841;28;20222;-74
2021/09/23 08:25:27;;;;;;;9.13;4.47;;;;;;;;;;4947832;28;20195;-74
2021/09/23 08:28:35;;;;;;;9.13;4.70;;;;;;;;;;4975202;28;20222;-75
2021/09/23 08:31:40;;;;;;;6.20;4.33;;;;;;;;;;4967095;28;20222;-72
2021/09/23 08:34:45;;;;;;;19.03;5.20;;;;;;;;;;4970146;28;20199;-72
2021/09/23 08:37:50;;;;;;;8.10;4.20;;;;;;;;;;4969063;28;20191;-76
2021/09/23 08:40:55;;;;;;;6.23;3.90;;;;;;;;;;4957418;28;20231;-74
2021/09/23 08:43:59;;;;;;;5.23;3.93;;;;;;;;;;4960784;28;20543;-75
2021/09/23 08:47:04;;;;;;;9.30;4.20;;;;;;;;;;4959594;28;20195;-73
2021/09/23 08:50:13;;;;;;;6.37;3.90;;;;;;;;;;4963480;28;20218;-76
2021/09/23 08:53:24;;;;;;;3.77;3.47;;;;;;;;;;4968969;28;20195;-74
2021/09/23 08:56:29;;;;;;;9.80;3.67;;;;;;;;;;4960097;28;20199;-74
2021/09/23 08:59:33;;;;;;;9.23;3.63;;;;;;;;;;4955917;29;20179;-74
2021/09/23 09:02:38;;;;;;;11.27;3.40;;;;;;;;;;4985815;23;20214;-75
2021/09/23 09:05:56;;;;;;;7.63;3.47;;;;;;;;;;4950954;29;20738;-75
2021/09/23 09:09:19;;;;;;;5.17;4.00;;;;;;;;;;4938295;29;20216;-74
2021/09/23 09:12:27;;;;;;;8.77;3.97;;;;;;;;;;4930079;29;20224;-75
2021/09/23 09:15:34;;;;;;;8.77;3.43;;;;;;;;;;4951084;28;20195;-75
2021/09/23 09:18:38;;;;;;;9.10;3.50;;;;;;;;;;4937642;29;20202;-75
2021/09/23 09:21:45;;;;;;;18.23;4.10;;;;;;;;;;4925428;29;20226;-74
2021/09/23 09:25:10;;;;;;;5.47;3.13;;;;;;;;;;4924612;29;20193;-75
2021/09/23 09:28:21;;;;;;;4.33;3.03;;;;;;;;;;4917280;29;20632;-76
2021/09/23 09:31:27;;;;;;;9.40;3.30;;;;;;;;;;4924572;29;20222;-75
2021/09/23 09:34:31;;;;;;;5.23;3.10;;;;;;;;;;4923642;29;20198;-75
2021/09/23 09:37:42;;;;;;;8.53;4.80;;;;;;;;;;4935964;29;20186;-75
2021/09/23 09:40:53;;;;;;;4.70;3.10;;;;;;;;;;4939889;29;20236;-75
2021/09/23 09:43:59;;;;;;;6.17;2.80;;;;;;;;;;4917898;29;20514;-76
2021/09/23 09:47:03;;;;;;;5.80;2.67;;;;;;;;;;4922586;29;20188;-76
2021/09/23 09:50:13;;;;;;;27.45;3.38;;;;;;;;;;4916881;29;20215;-76
2021/09/23 09:53:17;;;;;;;7.05;2.60;;;;;;;;;;4917462;29;20204;-76
2021/09/23 09:56:25;;;;;;;6.25;2.83;;;;;;;;;;4927120;29;20198;-75
2021/09/23 09:59:30;;;;;;;3.03;2.50;;;;;;;;;;4905849;29;20630;-75
2021/09/23 10:02:36;;;;;;;3.15;2.60;;;;;;;;;;4917257;29;20214;-76
2021/09/23 10:05:43;;;;;;;6.70;2.20;;;;;;;;;;4929478;29;20689;-75
2021/09/23 10:08:49;;;;;;;9.23;2.70;;;;;;;;;;4916488;29;20216;-75
2021/09/23 10:11:54;;;;;;;8.15;2.38;;;;;;;;;;4937512;29;20222;-75
2021/09/23 10:14:59;;;;;;;6.03;1.77;;;;;;;;;;4927723;29;20206;-75
2021/09/23 10:18:04;;;;;;;5.10;2.22;;;;;;;;;;4927716;29;20203;-75
2021/09/23 10:21:13;;;;;;;4.65;2.10;;;;;;;;;;4914003;29;20225;-76
2021/09/23 10:24:17;;;;;;;2.92;1.98;;;;;;;;;;4916305;29;20196;-75
2021/09/23 10:30:48;;;;;;;8.68;2.13;;;;;;;;;;4923439;29;20225;-75
2021/09/23 10:33:59;;;;;;;4.38;2.00;;;;;;;;;;4935679;29;20215;-76
2021/09/23 10:37:03;;;;;;;31.40;3.60;;;;;;;;;;4927827;29;20193;-76
2021/09/23 10:40:11;;;;;;;3.83;1.83;;;;;;;;;;4918842;29;20173;-76
2021/09/23 10:43:18;;;;;;;3.90;2.30;;;;;;;;;;4934983;29;20201;-76
2021/09/23 10:46:28;;;;;;;3.53;1.95;;;;;;;;;;4934795;29;20531;-76
2021/09/23 10:49:34;;;;;;;11.50;2.13;;;;;;;;;;4936438;29;20209;-75
2021/09/23 10:52:40;;;;;;;3.10;1.60;;;;;;;;;;4920927;29;20703;-76
2021/09/23 10:55:46;;;;;;;3.50;1.98;;;;;;;;;;4909131;29;20187;-75
2021/09/23 10:58:54;;;;;;;5.95;1.73;;;;;;;;;;4919952;29;20513;-76
2021/09/23 11:02:21;;;;;;;2.55;1.60;;;;;;;;;;4936333;29;20221;-76
2021/09/23 11:05:27;;;;;;;8.65;2.05;;;;;;;;;;4923895;29;20203;-75
2021/09/23 11:08:37;;;;;;;3.00;2.05;;;;;;;;;;4919566;29;20229;-75
2021/09/23 11:11:44;;;;;;;3.40;2.38;;;;;;;;;;4919852;29;20230;-76
2021/09/23 11:14:51;;;;;;;3.88;2.00;;;;;;;;;;4919277;29;20647;-75
2021/09/23 11:17:59;;;;;;;2.97;2.00;;;;;;;;;;4919838;29;20195;-75
2021/09/23 11:21:05;;;;;;;4.20;1.90;;;;;;;;;;4933943;29;20564;-75
2021/09/23 11:24:10;;;;;;;2.57;1.80;;;;;;;;;;4936770;29;20190;-76
2021/09/23 11:27:14;;;;;;;3.47;2.00;;;;;;;;;;4929495;29;20196;-75
2021/09/23 11:30:35;;;;;;;5.23;2.53;;;;;;;;;;4932554;29;20211;-75
2021/09/23 11:33:42;;;;;;;4.03;2.67;;;;;;;;;;4938733;29;20190;-75
2021/09/23 11:36:54;;;;;;;4.73;2.60;;;;;;;;;;4938269;29;20190;-75
2021/09/23 11:40:00;;;;;;;4.03;2.80;;;;;;;;;;4934924;29;20213;-75
2021/09/23 11:43:09;;;;;;;2.63;2.37;;;;;;;;;;4927070;29;20195;-75
2021/09/23 11:46:15;;;;;;;4.60;2.37;;;;;;;;;;4925792;29;20538;-75
2021/09/23 11:49:20;;;;;;;3.73;2.20;;;;;;;;;;4938193;29;20562;-75
2021/09/23 11:52:35;;;;;;;14.47;2.90;;;;;;;;;;4928932;29;20702;-75
2021/09/23 11:55:43;;;;;;;5.63;3.30;;;;;;;;;;4957698;28;20242;-76
2021/09/23 11:58:49;;;;;;;4.87;2.73;;;;;;;;;;4956269;28;20192;-76
2021/09/23 12:02:05;;;;;;;6.57;2.57;;;;;;;;;;4967175;28;20714;-75
2021/09/23 12:05:11;;;;;;;5.77;2.43;;;;;;;;;;4954477;29;20187;-75
2021/09/23 12:08:18;;;;;;;2.70;2.33;;;;;;;;;;4941177;29;20679;-75
2021/09/23 12:11:23;;;;;;;4.07;2.57;;;;;;;;;;4948478;28;20701;-76
2021/09/23 12:14:32;;;;;;;4.67;2.50;;;;;;;;;;4948533;29;20184;-76
2021/09/23 12:17:52;;;;;;;4.17;2.73;;;;;;;;;;4927394;29;20180;-75
2021/09/23 12:21:04;;;;;;;3.40;2.30;;;;;;;;;;4956478;28;20690;-75
2021/09/23 12:24:09;;;;;;;5.72;2.10;;;;;;;;;;4956601;29;20650;-75
2021/09/23 12:27:18;;;;;;;3.75;2.78;;;;;;;;;;4965415;28;20649;-75
2021/09/23 12:30:25;;;;;;;2.88;2.53;;;;;;;;;;4955776;28;20213;-75
2021/09/23 12:33:33;;;;;;;5.68;2.65;;;;;;;;;;4955430;28;20202;-75
2021/09/23 12:36:58;;;;;;;6.47;2.50;;;;;;;;;;4947080;29;20199;-76
2021/09/23 12:40:04;;;;;;;5.43;2.42;;;;;;;;;;4947697;29;20526;-76
2021/09/23 12:43:17;;;;;;;3.28;2.20;;;;;;;;;;4944109;29;20186;-75
2021/09/23 12:46:29;;;;;;;6.90;2.60;;;;;;;;;;4953674;29;20191;-75
2021/09/23 12:49:42;;;;;;;10.07;2.55;;;;;;;;;;4938010;29;20215;-75
2021/09/23 12:52:48;;;;;;;6.45;2.30;;;;;;;;;;4936573;29;20186;-75
2021/09/23 12:56:06;;;;;;;3.85;2.42;;;;;;;;;;4947395;29;20202;-76
2021/09/23 12:59:21;;;;;;;8.40;2.38;;;;;;;;;;4954064;29;20197;-76
2021/09/23 13:02:27;;;;;;;4.45;2.28;;;;;;;;;;4944231;28;20236;-76
2021/09/23 13:05:31;;;;;;;5.28;3.00;;;;;;;;;;4941212;29;20215;-76
2021/09/23 13:08:45;;;;;;;8.20;2.70;;;;;;;;;;4945458;29;20522;-75
2021/09/23 13:11:49;;;;;;;17.67;2.78;;;;;;;;;;4944307;29;20217;-75
2021/09/23 13:15:19;;;;;;;3.30;2.05;;;;;;;;;;4961720;28;20193;-75
2021/09/23 13:18:32;;;;;;;4.22;2.55;;;;;;;;;;4947385;28;20200;-75
2021/09/23 13:21:56;;;;;;;6.47;2.50;;;;;;;;;;4936071;29;20227;-75
2021/09/23 13:25:10;;;;;;;2.80;2.10;;;;;;;;;;4936536;29;20198;-75
2021/09/23 13:28:26;;;;;;;6.65;2.28;;;;;;;;;;4952313;28;20199;-75
2021/09/23 13:31:33;;;;;;;3.50;1.95;;;;;;;;;;4924541;29;20233;-75
2021/09/23 13:34:39;;;;;;;15.95;2.88;;;;;;;;;;4931270;29;20205;-75
2021/09/23 13:37:46;;;;;;;3.42;2.60;;;;;;;;;;4944164;29;20187;-75
2021/09/23 13:40:55;;;;;;;2.88;1.90;;;;;;;;;;4935832;29;20225;-74
2021/09/23 13:44:02;;;;;;;2.55;2.25;;;;;;;;;;4925568;29;20178;-76
2021/09/23 13:47:16;;;;;;;7.13;2.40;;;;;;;;;;4952941;28;20199;-75
2021/09/23 13:50:22;;;;;;;3.33;2.60;;;;;;;;;;4954185;28;20672;-75
2021/09/23 13:53:26;;;;;;;4.80;2.50;;;;;;;;;;4936246;29;20198;-75
2021/09/23 13:56:32;;;;;;;2.50;2.10;;;;;;;;;;4951884;29;20193;-75
2021/09/23 13:59:37;;;;;;;3.03;2.35;;;;;;;;;;4959111;28;20198;-75
2021/09/23 14:02:44;;;;;;;7.47;2.25;;;;;;;;;;4945030;29;20192;-75
2021/09/23 14:05:49;;;;;;;8.93;2.95;;;;;;;;;;4958750;28;20200;-75
2021/09/23 14:08:56;;;;;;;6.65;2.55;;;;;;;;;;4923043;29;20200;-75
2021/09/23 14:12:19;;;;;;;3.42;2.35;;;;;;;;;;4938300;29;20222;-75
2021/09/23 14:15:31;;;;;;;5.53;2.42;;;;;;;;;;4948440;28;20198;-75
2021/09/23 14:18:36;;;;;;;2.75;2.38;;;;;;;;;;4939613;29;20190;-75
2021/09/23 14:21:40;;;;;;;3.22;2.45;;;;;;;;;;4952847;28;20703;-74
2021/09/23 14:24:45;;;;;;;3.33;2.40;;;;;;;;;;4954618;29;20201;-75
2021/09/23 14:27:50;;;;;;;3.67;2.20;;;;;;;;;;4946851;29;20522;-75
2021/09/23 14:30:55;;;;;;;42.63;4.90;;;;;;;;;;4943063;28;20226;-76
2021/09/23 14:34:01;;;;;;;4.38;2.00;;;;;;;;;;4965703;28;20187;-75
2021/09/23 14:37:06;;;;;;;3.80;2.03;;;;;;;;;;4940690;29;20545;-75
2021/09/23 14:40:34;;;;;;;7.90;2.30;;;;;;;;;;4935937;29;20203;-75
2021/09/23 14:43:40;;;;;;;3.30;2.60;;;;;;;;;;4935996;29;20543;-75
2021/09/23 14:46:44;;;;;;;7.67;2.40;;;;;;;;;;4946871;29;20225;-75
2021/09/23 14:49:49;;;;;;;3.40;2.20;;;;;;;;;;4954303;29;20191;-74
2021/09/23 14:52:53;;;;;;;7.40;2.50;;;;;;;;;;4936592;29;20206;-75
2021/09/23 14:56:03;;;;;;;10.73;2.47;;;;;;;;;;4935719;29;20203;-75
2021/09/23 14:59:08;;;;;;;19.40;3.17;;;;;;;;;;4934956;29;20189;-75
2021/09/23 15:02:13;;;;;;;18.23;2.80;;;;;;;;;;4940336;29;20218;-74
2021/09/23 15:05:17;;;;;;;4.13;2.30;;;;;;;;;;4938756;29;20196;-75
2021/09/23 15:08:21;;;;;;;3.47;2.00;;;;;;;;;;4943249;29;20189;-73
2021/09/23 15:11:26;;;;;;;13.27;2.67;;;;;;;;;;4946761;28;20237;-74
2021/09/23 15:14:30;;;;;;;2.93;2.20;;;;;;;;;;4947383;29;20199;-73
2021/09/23 15:17:35;;;;;;;6.67;2.27;;;;;;;;;;4938940;29;20182;-74
2021/09/23 15:20:40;;;;;;;3.30;2.43;;;;;;;;;;4947203;28;20207;-74
2021/09/23 15:23:44;;;;;;;11.90;2.70;;;;;;;;;;4952935;29;20200;-74
2021/09/23 15:26:48;;;;;;;3.03;2.33;;;;;;;;;;4939574;29;20640;-74
2021/09/23 15:29:53;;;;;;;4.57;2.20;;;;;;;;;;4927556;29;20179;-76
2021/09/23 15:32:57;;;;;;;3.07;2.40;;;;;;;;;;4938151;29;20180;-74
2021/09/23 15:36:04;;;;;;;5.57;2.40;;;;;;;;;;4927208;29;20200;-74
2021/09/23 15:39:09;;;;;;;4.63;2.10;;;;;;;;;;4937888;29;20184;-74
2021/09/23 15:42:13;;;;;;;3.37;2.27;;;;;;;;;;4938464;29;20212;-74
2021/09/23 15:45:18;;;;;;;5.80;2.83;;;;;;;;;;4938610;29;20192;-74
2021/09/23 15:48:23;;;;;;;4.67;2.20;;;;;;;;;;4938333;29;20200;-74
2021/09/23 15:51:32;;;;;;;8.27;2.63;;;;;;;;;;4938270;29;20235;-74
2021/09/23 15:54:36;;;;;;;4.50;2.30;;;;;;;;;;4937595;29;20196;-74
2021/09/23 15:57:41;;;;;;;4.87;2.40;;;;;;;;;;4938241;29;20212;-74
2021/09/23 16:00:46;;;;;;;3.70;2.43;;;;;;;;;;4932143;29;20220;-74
2021/09/23 16:03:50;;;;;;;3.63;2.20;;;;;;;;;;4938220;29;20217;-74
2021/09/23 16:06:54;;;;;;;3.33;2.20;;;;;;;;;;4937938;29;20636;-74
2021/09/23 16:09:58;;;;;;;3.80;2.53;;;;;;;;;;4937675;29;20188;-74
2021/09/23 16:13:04;;;;;;;4.23;2.50;;;;;;;;;;4938323;29;20188;-74
2021/09/23 16:16:13;;;;;;;4.60;2.53;;;;;;;;;;4938110;29;20192;-74
2021/09/23 16:19:17;;;;;;;3.33;2.20;;;;;;;;;;4938015;29;20180;-75
2021/09/23 16:22:21;;;;;;;2.93;2.50;;;;;;;;;;4937917;29;20219;-75
2021/09/23 16:25:28;;;;;;;2.43;2.20;;;;;;;;;;4926262;29;20271;-74
2021/09/23 16:28:33;;;;;;;4.37;2.40;;;;;;;;;;4937804;29;20199;-74
2021/09/23 16:31:38;;;;;;;2.87;2.30;;;;;;;;;;4937252;29;20584;-74
2021/09/23 16:34:45;;;;;;;2.00;1.80;;;;;;;;;;4937672;29;20208;-74
2021/09/23 16:37:49;;;;;;;3.00;2.53;;;;;;;;;;4937654;29;20184;-74
2021/09/23 16:40:53;;;;;;;11.70;2.90;;;;;;;;;;4936973;29;20220;-74
2021/09/23 16:43:59;;;;;;;31.73;3.50;;;;;;;;;;4937510;29;20184;-75
2021/09/23 16:47:05;;;;;;;14.73;3.20;;;;;;;;;;4938238;29;20188;-74
2021/09/23 16:50:09;;;;;;;7.93;2.90;;;;;;;;;;4937146;29;20180;-74
2021/09/23 16:53:15;;;;;;;3.17;2.63;;;;;;;;;;4936574;29;20185;-74
2021/09/23 16:56:19;;;;;;;4.17;2.30;;;;;;;;;;4949578;29;20199;-74
2021/09/23 16:59:24;;;;;;;6.37;2.20;;;;;;;;;;4956783;29;20180;-74
2021/09/23 17:02:28;;;;;;;5.33;2.20;;;;;;;;;;4939883;28;20216;-74
2021/09/23 17:05:32;;;;;;;3.60;2.40;;;;;;;;;;4951098;29;20195;-74
2021/09/23 17:08:40;;;;;;;6.87;2.50;;;;;;;;;;4945393;29;20192;-73
2021/09/23 17:11:44;;;;;;;3.13;2.20;;;;;;;;;;4934969;29;20219;-73
2021/09/23 17:14:49;;;;;;;4.07;2.40;;;;;;;;;;4944705;29;20203;-74
2021/09/23 17:17:53;;;;;;;4.57;2.50;;;;;;;;;;4933341;29;20196;-74
2021/09/23 17:21:00;;;;;;;5.67;2.37;;;;;;;;;;4944666;29;20219;-73
2021/09/23 17:24:04;;;;;;;4.23;2.63;;;;;;;;;;4952511;29;20184;-74
2021/09/23 17:27:11;;;;;;;4.63;2.70;;;;;;;;;;4950191;29;20215;-73
2021/09/23 17:30:15;;;;;;;4.20;2.77;;;;;;;;;;4952093;28;20202;-73
2021/09/23 17:33:20;;;;;;;4.00;2.97;;;;;;;;;;4951112;29;20207;-74
2021/09/23 17:36:24;;;;;;;2.93;2.37;;;;;;;;;;4952460;29;20176;-74
2021/09/23 17:39:28;;;;;;;2.50;2.30;;;;;;;;;;4939858;29;20204;-73
2021/09/23 17:42:35;;;;;;;3.37;2.70;;;;;;;;;;4952132;28;20223;-74
2021/09/23 17:45:39;;;;;;;5.60;2.53;;;;;;;;;;4942350;29;20208;-73
2021/09/23 17:48:45;;;;;;;3.97;2.77;;;;;;;;;;4932951;29;20212;-74
2021/09/23 17:51:49;;;;;;;4.10;3.00;;;;;;;;;;4951759;28;20702;-74
2021/09/23 17:54:53;;;;;;;4.33;2.80;;;;;;;;;;4950848;29;20639;-73
2021/09/23 17:57:57;;;;;;;3.33;2.70;;;;;;;;;;4940081;29;20199;-75
2021/09/23 18:01:02;;;;;;;4.57;2.90;;;;;;;;;;4944175;28;20603;-74
2021/09/23 18:04:07;;;;;;;7.93;3.00;;;;;;;;;;4931965;29;20215;-75
2021/09/23 18:07:13;;;;;;;4.53;2.80;;;;;;;;;;4934843;29;20210;-74
2021/09/23 18:10:18;;;;;;;3.37;2.93;;;;;;;;;;4943533;28;20192;-74
2021/09/23 18:13:22;;;;;;;4.03;3.30;;;;;;;;;;4947786;29;20195;-73
2021/09/23 18:16:27;;;;;;;20.30;4.47;;;;;;;;;;4949751;29;20203;-74
2021/09/23 18:19:31;;;;;;;14.87;3.90;;;;;;;;;;4947513;29;20616;-73
2021/09/23 18:22:40;;;;;;;14.20;3.50;;;;;;;;;;4931846;29;20224;-74
2021/09/23 18:25:50;;;;;;;12.57;3.90;;;;;;;;;;4949055;29;20196;-74
2021/09/23 18:28:55;;;;;;;6.53;3.33;;;;;;;;;;4951235;29;20186;-74
2021/09/23 18:32:01;;;;;;;5.30;3.70;;;;;;;;;;4947425;28;20220;-74
2021/09/23 18:35:07;;;;;;;5.53;3.60;;;;;;;;;;4943007;29;20658;-74